sensor_id;sensor_type;location;lat;lon;timestamp;temperature;humidity
2999;DHT22;1509;51.964;7.628;2024-03-08T00:00:16;3.60;99.90
2999;DHT22;1509;51.964;7.628;2024-03-08T00:02:46;3.60;99.90
2999;DHT22;1509;51.964;7.628;2024-03-08T00:05:13;3.60;99.90
2999;DHT22;1509;51.964;7.628;2024-03-08T00:07:39;3.60;99.90
2999;DHT22;1509;51.964;7.628;2024-03-08T00:10:06;3.60;99.90
2999;DHT22;1509;51.964;7.628;2024-03-08T00:12:37;3.50;99.90
2999;DHT22;1509;51.964;7.628;2024-03-08T00:15:03;3.50;99.90
2999;DHT22;1509;51.964;7.628;2024-03-08T00:17:29;3.50;99.90
2999;DHT22;1509;51.964;7.628;2024-03-08T00:19:54;3.50;99.90
2999;DHT22;1509;51.964;7.628;2024-03-08T00:22:20;3.40;99.90
2999;DHT22;1509;51.964;7.628;2024-03-08T00:24:47;3.40;99.90
2999;DHT22;1509;51.964;7.628;2024-03-08T00:27:14;3.40;99.90
2999;DHT22;1509;51.964;7.628;2024-03-08T00:29:41;3.40;99.90
2999;DHT22;1509;51.964;7.628;2024-03-08T00:32:06;3.40;99.90
2999;DHT22;1509;51.964;7.628;2024-03-08T00:34:35;3.30;99.90
2999;DHT22;1509;51.964;7.628;2024-03-08T00:37:02;3.30;99.90
2999;DHT22;1509;51.964;7.628;2024-03-08T00:39:28;3.30;99.90
2999;DHT22;1509;51.964;7.628;2024-03-08T00:41:54;3.30;99.90
2999;DHT22;1509;51.964;7.628;2024-03-08T00:44:19;3.30;99.90
2999;DHT22;1509;51.964;7.628;2024-03-08T00:46:45;3.30;99.90
2999;DHT22;1509;51.964;7.628;2024-03-08T00:49:11;3.30;99.90
2999;DHT22;1509;51.964;7.628;2024-03-08T00:51:38;3.20;99.90
2999;DHT22;1509;51.964;7.628;2024-03-08T00:54:03;3.20;99.90
2999;DHT22;1509;51.964;7.628;2024-03-08T00:56:29;3.10;99.90
2999;DHT22;1509;51.964;7.628;2024-03-08T00:58:55;3.30;99.90
2999;DHT22;1509;51.964;7.628;2024-03-08T01:01:20;3.20;99.90
2999;DHT22;1509;51.964;7.628;2024-03-08T01:03:46;3.10;99.90
2999;DHT22;1509;51.964;7.628;2024-03-08T01:06:11;3.10;99.90
2999;DHT22;1509;51.964;7.628;2024-03-08T01:08:37;3.10;99.90
2999;DHT22;1509;51.964;7.628;2024-03-08T01:11:04;3.00;99.90
2999;DHT22;1509;51.964;7.628;2024-03-08T01:13:30;3.00;99.90
2999;DHT22;1509;51.964;7.628;2024-03-08T01:15:56;3.00;99.90
2999;DHT22;1509;51.964;7.628;2024-03-08T01:18:24;3.00;99.90
2999;DHT22;1509;51.964;7.628;2024-03-08T01:20:50;2.90;99.90
2999;DHT22;1509;51.964;7.628;2024-03-08T01:23:16;3.10;99.90
2999;DHT22;1509;51.964;7.628;2024-03-08T01:25:41;3.00;99.90
2999;DHT22;1509;51.964;7.628;2024-03-08T01:28:09;3.00;99.90
2999;DHT22;1509;51.964;7.628;2024-03-08T01:30:34;2.90;99.90
2999;DHT22;1509;51.964;7.628;2024-03-08T01:33:02;2.90;99.90
2999;DHT22;1509;51.964;7.628;2024-03-08T01:35:28;2.90;99.90
2999;DHT22;1509;51.964;7.628;2024-03-08T01:37:53;2.90;99.90
2999;DHT22;1509;51.964;7.628;2024-03-08T01:40:19;2.90;99.90
2999;DHT22;1509;51.964;7.628;2024-03-08T01:42:44;2.90;99.90
2999;DHT22;1509;51.964;7.628;2024-03-08T01:45:10;2.90;99.90
2999;DHT22;1509;51.964;7.628;2024-03-08T01:47:37;2.90;99.90
2999;DHT22;1509;51.964;7.628;2024-03-08T01:50:03;2.90;99.90
2999;DHT22;1509;51.964;7.628;2024-03-08T01:52:30;2.90;99.90
2999;DHT22;1509;51.964;7.628;2024-03-08T01:55:00;2.90;99.90
2999;DHT22;1509;51.964;7.628;2024-03-08T01:57:27;2.90;99.90
2999;DHT22;1509;51.964;7.628;2024-03-08T01:59:54;2.90;99.90
2999;DHT22;1509;51.964;7.628;2024-03-08T02:02:21;2.90;99.90
2999;DHT22;1509;51.964;7.628;2024-03-08T02:04:47;2.90;99.90
2999;DHT22;1509;51.964;7.628;2024-03-08T02:07:13;2.90;99.90
2999;DHT22;1509;51.964;7.628;2024-03-08T02:09:39;2.80;99.90
2999;DHT22;1509;51.964;7.628;2024-03-08T02:12:05;2.80;99.90
2999;DHT22;1509;51.964;7.628;2024-03-08T02:14:32;2.80;99.90
2999;DHT22;1509;51.964;7.628;2024-03-08T02:17:01;2.80;99.90
2999;DHT22;1509;51.964;7.628;2024-03-08T02:19:26;2.80;99.90
2999;DHT22;1509;51.964;7.628;2024-03-08T02:21:52;2.80;99.90
2999;DHT22;1509;51.964;7.628;2024-03-08T02:24:19;2.90;99.90
2999;DHT22;1509;51.964;7.628;2024-03-08T02:26:44;2.80;99.90
2999;DHT22;1509;51.964;7.628;2024-03-08T02:29:10;2.80;99.90
2999;DHT22;1509;51.964;7.628;2024-03-08T02:31:38;2.80;99.90
2999;DHT22;1509;51.964;7.628;2024-03-08T02:34:04;2.80;99.90
2999;DHT22;1509;51.964;7.628;2024-03-08T02:36:30;2.70;99.90
2999;DHT22;1509;51.964;7.628;2024-03-08T02:39:03;2.80;99.90
2999;DHT22;1509;51.964;7.628;2024-03-08T02:41:29;2.70;99.90
2999;DHT22;1509;51.964;7.628;2024-03-08T02:43:54;2.70;99.90
2999;DHT22;1509;51.964;7.628;2024-03-08T02:46:23;2.70;99.90
2999;DHT22;1509;51.964;7.628;2024-03-08T02:48:49;2.70;99.90
2999;DHT22;1509;51.964;7.628;2024-03-08T02:51:16;2.60;99.90
2999;DHT22;1509;51.964;7.628;2024-03-08T02:53:41;2.70;99.90
2999;DHT22;1509;51.964;7.628;2024-03-08T02:56:08;2.60;99.90
2999;DHT22;1509;51.964;7.628;2024-03-08T02:58:38;2.60;99.90
2999;DHT22;1509;51.964;7.628;2024-03-08T03:01:03;2.60;99.90
2999;DHT22;1509;51.964;7.628;2024-03-08T03:03:29;2.60;99.90
2999;DHT22;1509;51.964;7.628;2024-03-08T03:05:55;2.60;99.90
2999;DHT22;1509;51.964;7.628;2024-03-08T03:08:23;2.60;99.90
2999;DHT22;1509;51.964;7.628;2024-03-08T03:10:49;2.60;99.90
2999;DHT22;1509;51.964;7.628;2024-03-08T03:13:14;2.50;99.90
2999;DHT22;1509;51.964;7.628;2024-03-08T03:15:40;2.60;99.90
2999;DHT22;1509;51.964;7.628;2024-03-08T03:18:07;2.50;99.90
2999;DHT22;1509;51.964;7.628;2024-03-08T03:20:33;2.50;99.90
2999;DHT22;1509;51.964;7.628;2024-03-08T03:23:02;2.50;99.90
2999;DHT22;1509;51.964;7.628;2024-03-08T03:25:28;2.50;99.90
2999;DHT22;1509;51.964;7.628;2024-03-08T03:27:59;2.50;99.90
2999;DHT22;1509;51.964;7.628;2024-03-08T03:30:25;2.50;99.90
2999;DHT22;1509;51.964;7.628;2024-03-08T03:33:02;2.50;99.90
2999;DHT22;1509;51.964;7.628;2024-03-08T03:35:32;2.50;99.90
2999;DHT22;1509;51.964;7.628;2024-03-08T03:37:58;2.50;99.90
2999;DHT22;1509;51.964;7.628;2024-03-08T03:40:28;2.50;99.90
2999;DHT22;1509;51.964;7.628;2024-03-08T03:42:54;2.40;99.90
2999;DHT22;1509;51.964;7.628;2024-03-08T03:45:20;2.40;99.90
2999;DHT22;1509;51.964;7.628;2024-03-08T03:47:46;2.40;99.90
2999;DHT22;1509;51.964;7.628;2024-03-08T03:50:11;2.40;99.90
2999;DHT22;1509;51.964;7.628;2024-03-08T03:52:37;2.40;99.90
2999;DHT22;1509;51.964;7.628;2024-03-08T03:55:03;2.40;99.90
2999;DHT22;1509;51.964;7.628;2024-03-08T03:57:30;2.40;99.90
2999;DHT22;1509;51.964;7.628;2024-03-08T03:59:56;2.30;99.90
2999;DHT22;1509;51.964;7.628;2024-03-08T04:02:24;2.30;99.90
2999;DHT22;1509;51.964;7.628;2024-03-08T04:04:54;2.30;99.90
2999;DHT22;1509;51.964;7.628;2024-03-08T04:07:20;2.30;99.90
2999;DHT22;1509;51.964;7.628;2024-03-08T04:09:46;2.30;99.90
2999;DHT22;1509;51.964;7.628;2024-03-08T04:12:12;2.30;99.90
2999;DHT22;1509;51.964;7.628;2024-03-08T04:14:41;2.30;99.90
2999;DHT22;1509;51.964;7.628;2024-03-08T04:17:07;2.40;99.90
2999;DHT22;1509;51.964;7.628;2024-03-08T04:19:35;2.20;99.90
2999;DHT22;1509;51.964;7.628;2024-03-08T04:22:01;2.20;99.90
2999;DHT22;1509;51.964;7.628;2024-03-08T04:24:27;2.20;99.90
2999;DHT22;1509;51.964;7.628;2024-03-08T04:26:53;2.20;99.90
2999;DHT22;1509;51.964;7.628;2024-03-08T04:29:19;2.20;99.90
2999;DHT22;1509;51.964;7.628;2024-03-08T04:31:44;2.20;99.90
2999;DHT22;1509;51.964;7.628;2024-03-08T04:34:10;2.20;99.90
2999;DHT22;1509;51.964;7.628;2024-03-08T04:36:36;2.20;99.90
2999;DHT22;1509;51.964;7.628;2024-03-08T04:39:02;2.20;99.90
2999;DHT22;1509;51.964;7.628;2024-03-08T04:41:28;2.10;99.90
2999;DHT22;1509;51.964;7.628;2024-03-08T04:43:56;2.10;99.90
2999;DHT22;1509;51.964;7.628;2024-03-08T04:46:23;2.10;99.90
2999;DHT22;1509;51.964;7.628;2024-03-08T04:48:51;2.10;99.90
2999;DHT22;1509;51.964;7.628;2024-03-08T04:51:17;2.10;99.90
2999;DHT22;1509;51.964;7.628;2024-03-08T04:53:50;2.10;99.90
2999;DHT22;1509;51.964;7.628;2024-03-08T04:56:16;2.10;99.90
2999;DHT22;1509;51.964;7.628;2024-03-08T04:58:41;2.10;99.90
2999;DHT22;1509;51.964;7.628;2024-03-08T05:01:07;2.10;99.90
2999;DHT22;1509;51.964;7.628;2024-03-08T05:03:35;2.00;99.90
2999;DHT22;1509;51.964;7.628;2024-03-08T05:06:01;2.10;99.90
2999;DHT22;1509;51.964;7.628;2024-03-08T05:08:27;2.00;99.90
2999;DHT22;1509;51.964;7.628;2024-03-08T05:10:52;2.00;99.90
2999;DHT22;1509;51.964;7.628;2024-03-08T05:13:18;2.00;99.90
2999;DHT22;1509;51.964;7.628;2024-03-08T05:15:44;2.00;99.90
2999;DHT22;1509;51.964;7.628;2024-03-08T05:18:13;1.90;99.90
2999;DHT22;1509;51.964;7.628;2024-03-08T05:20:39;2.00;99.90
2999;DHT22;1509;51.964;7.628;2024-03-08T05:23:06;2.00;99.90
2999;DHT22;1509;51.964;7.628;2024-03-08T05:25:32;2.00;99.90
2999;DHT22;1509;51.964;7.628;2024-03-08T05:27:58;2.00;99.90
2999;DHT22;1509;51.964;7.628;2024-03-08T05:30:23;1.90;99.90
2999;DHT22;1509;51.964;7.628;2024-03-08T05:32:49;1.90;99.90
2999;DHT22;1509;51.964;7.628;2024-03-08T05:35:14;1.90;99.90
2999;DHT22;1509;51.964;7.628;2024-03-08T05:37:41;1.90;99.90
2999;DHT22;1509;51.964;7.628;2024-03-08T05:40:08;1.90;99.90
2999;DHT22;1509;51.964;7.628;2024-03-08T05:42:40;1.90;99.90
2999;DHT22;1509;51.964;7.628;2024-03-08T05:45:06;1.90;99.90
2999;DHT22;1509;51.964;7.628;2024-03-08T05:47:32;2.00;99.90
2999;DHT22;1509;51.964;7.628;2024-03-08T05:50:01;2.10;99.90
2999;DHT22;1509;51.964;7.628;2024-03-08T05:52:27;2.20;99.90
2999;DHT22;1509;51.964;7.628;2024-03-08T05:54:52;2.40;99.90
2999;DHT22;1509;51.964;7.628;2024-03-08T05:57:18;2.50;99.90
2999;DHT22;1509;51.964;7.628;2024-03-08T05:59:44;2.50;99.90
2999;DHT22;1509;51.964;7.628;2024-03-08T06:02:10;2.50;99.90
2999;DHT22;1509;51.964;7.628;2024-03-08T06:04:41;2.30;99.90
2999;DHT22;1509;51.964;7.628;2024-03-08T06:07:08;2.20;99.90
2999;DHT22;1509;51.964;7.628;2024-03-08T06:09:38;2.20;99.90
2999;DHT22;1509;51.964;7.628;2024-03-08T06:12:04;2.00;99.90
2999;DHT22;1509;51.964;7.628;2024-03-08T06:14:31;2.00;99.90
2999;DHT22;1509;51.964;7.628;2024-03-08T06:16:57;1.90;99.90
2999;DHT22;1509;51.964;7.628;2024-03-08T06:19:23;1.90;99.90
2999;DHT22;1509;51.964;7.628;2024-03-08T06:21:49;1.90;99.90
2999;DHT22;1509;51.964;7.628;2024-03-08T06:24:14;1.90;99.90
2999;DHT22;1509;51.964;7.628;2024-03-08T06:26:40;1.90;99.90
2999;DHT22;1509;51.964;7.628;2024-03-08T06:29:06;2.00;99.90
2999;DHT22;1509;51.964;7.628;2024-03-08T06:31:32;1.90;99.90
2999;DHT22;1509;51.964;7.628;2024-03-08T06:33:58;1.90;99.90
2999;DHT22;1509;51.964;7.628;2024-03-08T06:36:23;1.90;99.90
2999;DHT22;1509;51.964;7.628;2024-03-08T06:38:49;1.90;99.90
2999;DHT22;1509;51.964;7.628;2024-03-08T06:41:15;1.90;99.90
2999;DHT22;1509;51.964;7.628;2024-03-08T06:43:45;2.00;99.90
2999;DHT22;1509;51.964;7.628;2024-03-08T06:46:11;2.00;99.90
2999;DHT22;1509;51.964;7.628;2024-03-08T06:48:39;2.00;99.90
2999;DHT22;1509;51.964;7.628;2024-03-08T06:51:05;2.00;99.90
2999;DHT22;1509;51.964;7.628;2024-03-08T06:53:31;2.00;99.90
2999;DHT22;1509;51.964;7.628;2024-03-08T06:55:58;2.10;99.90
2999;DHT22;1509;51.964;7.628;2024-03-08T06:58:24;2.10;99.90
2999;DHT22;1509;51.964;7.628;2024-03-08T07:00:49;2.10;99.90
2999;DHT22;1509;51.964;7.628;2024-03-08T07:03:18;2.20;99.90
2999;DHT22;1509;51.964;7.628;2024-03-08T07:05:44;2.20;99.90
2999;DHT22;1509;51.964;7.628;2024-03-08T07:08:10;2.20;99.90
2999;DHT22;1509;51.964;7.628;2024-03-08T07:10:36;2.30;99.90
2999;DHT22;1509;51.964;7.628;2024-03-08T07:13:02;2.30;99.90
2999;DHT22;1509;51.964;7.628;2024-03-08T07:15:28;2.30;99.90
2999;DHT22;1509;51.964;7.628;2024-03-08T07:17:54;2.40;99.90
2999;DHT22;1509;51.964;7.628;2024-03-08T07:20:20;2.40;99.90
2999;DHT22;1509;51.964;7.628;2024-03-08T07:22:47;2.50;99.90
2999;DHT22;1509;51.964;7.628;2024-03-08T07:25:19;2.50;99.90
2999;DHT22;1509;51.964;7.628;2024-03-08T07:27:50;2.60;99.90
2999;DHT22;1509;51.964;7.628;2024-03-08T07:30:17;2.70;99.90
2999;DHT22;1509;51.964;7.628;2024-03-08T07:33:03;2.70;99.90
2999;DHT22;1509;51.964;7.628;2024-03-08T07:35:29;2.70;99.90
2999;DHT22;1509;51.964;7.628;2024-03-08T07:37:56;2.80;99.90
2999;DHT22;1509;51.964;7.628;2024-03-08T07:40:22;2.70;99.90
2999;DHT22;1509;51.964;7.628;2024-03-08T07:42:49;2.90;99.90
2999;DHT22;1509;51.964;7.628;2024-03-08T07:45:15;2.90;99.90
2999;DHT22;1509;51.964;7.628;2024-03-08T07:47:41;3.00;99.90
2999;DHT22;1509;51.964;7.628;2024-03-08T07:50:07;3.10;99.90
2999;DHT22;1509;51.964;7.628;2024-03-08T07:52:36;3.20;99.90
2999;DHT22;1509;51.964;7.628;2024-03-08T07:55:05;3.30;99.90
2999;DHT22;1509;51.964;7.628;2024-03-08T07:57:31;3.40;99.90
2999;DHT22;1509;51.964;7.628;2024-03-08T07:59:57;3.40;99.90
2999;DHT22;1509;51.964;7.628;2024-03-08T08:02:23;3.50;99.90
2999;DHT22;1509;51.964;7.628;2024-03-08T08:04:49;3.60;99.90
2999;DHT22;1509;51.964;7.628;2024-03-08T08:07:14;3.70;99.90
2999;DHT22;1509;51.964;7.628;2024-03-08T08:09:40;3.80;99.90
2999;DHT22;1509;51.964;7.628;2024-03-08T08:12:08;3.90;99.90
2999;DHT22;1509;51.964;7.628;2024-03-08T08:14:38;4.10;99.90
2999;DHT22;1509;51.964;7.628;2024-03-08T08:17:04;4.50;99.90
2999;DHT22;1509;51.964;7.628;2024-03-08T08:19:30;4.90;99.90
2999;DHT22;1509;51.964;7.628;2024-03-08T08:21:57;5.70;99.90
2999;DHT22;1509;51.964;7.628;2024-03-08T08:24:23;7.00;99.90
2999;DHT22;1509;51.964;7.628;2024-03-08T08:26:48;7.90;99.90
2999;DHT22;1509;51.964;7.628;2024-03-08T08:29:14;8.40;99.90
2999;DHT22;1509;51.964;7.628;2024-03-08T08:31:40;8.60;99.90
2999;DHT22;1509;51.964;7.628;2024-03-08T08:34:05;9.50;99.90
2999;DHT22;1509;51.964;7.628;2024-03-08T08:36:32;10.10;99.90
2999;DHT22;1509;51.964;7.628;2024-03-08T08:38:59;10.90;99.90
2999;DHT22;1509;51.964;7.628;2024-03-08T08:41:25;11.50;99.90
2999;DHT22;1509;51.964;7.628;2024-03-08T08:43:52;11.60;99.90
2999;DHT22;1509;51.964;7.628;2024-03-08T08:46:18;11.10;99.90
2999;DHT22;1509;51.964;7.628;2024-03-08T08:48:44;11.20;99.90
2999;DHT22;1509;51.964;7.628;2024-03-08T08:51:11;11.60;99.90
2999;DHT22;1509;51.964;7.628;2024-03-08T08:53:41;11.90;99.90
2999;DHT22;1509;51.964;7.628;2024-03-08T08:56:08;12.20;99.90
2999;DHT22;1509;51.964;7.628;2024-03-08T08:58:34;12.50;99.90
2999;DHT22;1509;51.964;7.628;2024-03-08T09:01:00;12.60;99.90
2999;DHT22;1509;51.964;7.628;2024-03-08T09:03:27;12.40;99.90
2999;DHT22;1509;51.964;7.628;2024-03-08T09:05:53;12.20;99.90
2999;DHT22;1509;51.964;7.628;2024-03-08T09:08:19;12.10;99.90
2999;DHT22;1509;51.964;7.628;2024-03-08T09:10:45;12.50;99.90
2999;DHT22;1509;51.964;7.628;2024-03-08T09:13:12;12.80;99.90
2999;DHT22;1509;51.964;7.628;2024-03-08T09:15:39;13.90;99.90
2999;DHT22;1509;51.964;7.628;2024-03-08T09:18:06;14.30;99.90
2999;DHT22;1509;51.964;7.628;2024-03-08T09:20:32;14.60;99.90
2999;DHT22;1509;51.964;7.628;2024-03-08T09:22:58;13.80;99.90
2999;DHT22;1509;51.964;7.628;2024-03-08T09:25:23;13.70;99.90
2999;DHT22;1509;51.964;7.628;2024-03-08T09:27:51;14.00;99.90
2999;DHT22;1509;51.964;7.628;2024-03-08T09:30:17;14.00;99.90
2999;DHT22;1509;51.964;7.628;2024-03-08T09:32:43;13.80;99.90
2999;DHT22;1509;51.964;7.628;2024-03-08T09:35:09;13.80;99.90
2999;DHT22;1509;51.964;7.628;2024-03-08T09:37:35;14.10;99.90
2999;DHT22;1509;51.964;7.628;2024-03-08T09:40:03;14.40;99.90
2999;DHT22;1509;51.964;7.628;2024-03-08T09:42:35;14.20;99.90
2999;DHT22;1509;51.964;7.628;2024-03-08T09:45:08;14.20;99.90
2999;DHT22;1509;51.964;7.628;2024-03-08T09:47:37;15.00;99.90
2999;DHT22;1509;51.964;7.628;2024-03-08T09:50:06;14.80;99.90
2999;DHT22;1509;51.964;7.628;2024-03-08T09:52:55;14.30;99.90
2999;DHT22;1509;51.964;7.628;2024-03-08T09:55:25;14.00;99.90
2999;DHT22;1509;51.964;7.628;2024-03-08T09:57:54;14.20;99.90
2999;DHT22;1509;51.964;7.628;2024-03-08T10:00:39;14.20;99.90
2999;DHT22;1509;51.964;7.628;2024-03-08T10:03:04;14.50;99.90
2999;DHT22;1509;51.964;7.628;2024-03-08T10:05:30;14.60;99.90
2999;DHT22;1509;51.964;7.628;2024-03-08T10:07:58;14.30;99.90
2999;DHT22;1509;51.964;7.628;2024-03-08T10:10:24;14.60;99.90
2999;DHT22;1509;51.964;7.628;2024-03-08T10:12:49;15.20;99.90
2999;DHT22;1509;51.964;7.628;2024-03-08T10:15:24;15.30;99.90
2999;DHT22;1509;51.964;7.628;2024-03-08T10:17:53;14.80;99.90
2999;DHT22;1509;51.964;7.628;2024-03-08T10:20:19;15.10;99.90
2999;DHT22;1509;51.964;7.628;2024-03-08T10:22:45;15.40;99.90
2999;DHT22;1509;51.964;7.628;2024-03-08T10:25:12;15.60;99.90
2999;DHT22;1509;51.964;7.628;2024-03-08T10:27:39;15.90;99.90
2999;DHT22;1509;51.964;7.628;2024-03-08T10:30:14;15.70;99.90
2999;DHT22;1509;51.964;7.628;2024-03-08T10:32:41;15.60;99.90
2999;DHT22;1509;51.964;7.628;2024-03-08T10:35:09;15.90;99.90
2999;DHT22;1509;51.964;7.628;2024-03-08T10:37:50;16.50;99.90
2999;DHT22;1509;51.964;7.628;2024-03-08T10:40:24;16.00;99.90
2999;DHT22;1509;51.964;7.628;2024-03-08T10:42:57;16.10;99.90
2999;DHT22;1509;51.964;7.628;2024-03-08T10:45:38;16.70;99.90
2999;DHT22;1509;51.964;7.628;2024-03-08T10:48:29;16.90;99.90
2999;DHT22;1509;51.964;7.628;2024-03-08T10:50:59;15.90;99.90
2999;DHT22;1509;51.964;7.628;2024-03-08T10:53:29;15.40;99.90
2999;DHT22;1509;51.964;7.628;2024-03-08T10:55:58;15.80;99.90
2999;DHT22;1509;51.964;7.628;2024-03-08T10:58:27;14.90;99.90
2999;DHT22;1509;51.964;7.628;2024-03-08T11:00:56;15.00;99.90
2999;DHT22;1509;51.964;7.628;2024-03-08T11:08:48;15.80;99.90
2999;DHT22;1509;51.964;7.628;2024-03-08T11:11:26;15.90;99.90
2999;DHT22;1509;51.964;7.628;2024-03-08T11:14:02;15.60;99.90
2999;DHT22;1509;51.964;7.628;2024-03-08T11:21:37;15.50;99.90
2999;DHT22;1509;51.964;7.628;2024-03-08T11:24:13;15.90;99.90
2999;DHT22;1509;51.964;7.628;2024-03-08T11:26:41;16.30;99.90
2999;DHT22;1509;51.964;7.628;2024-03-08T11:32:10;16.90;99.90
2999;DHT22;1509;51.964;7.628;2024-03-08T11:34:45;16.90;99.90
2999;DHT22;1509;51.964;7.628;2024-03-08T11:37:19;17.00;99.90
2999;DHT22;1509;51.964;7.628;2024-03-08T11:39:55;17.50;99.90
2999;DHT22;1509;51.964;7.628;2024-03-08T11:42:29;17.70;99.90
2999;DHT22;1509;51.964;7.628;2024-03-08T11:44:55;17.10;99.90
2999;DHT22;1509;51.964;7.628;2024-03-08T11:47:22;16.70;99.90
2999;DHT22;1509;51.964;7.628;2024-03-08T11:49:48;16.40;99.90
2999;DHT22;1509;51.964;7.628;2024-03-08T11:52:18;16.20;99.90
2999;DHT22;1509;51.964;7.628;2024-03-08T11:54:51;16.40;99.90
2999;DHT22;1509;51.964;7.628;2024-03-08T11:57:23;16.30;99.90
2999;DHT22;1509;51.964;7.628;2024-03-08T11:59:52;16.80;99.90
2999;DHT22;1509;51.964;7.628;2024-03-08T12:02:21;16.30;99.90
2999;DHT22;1509;51.964;7.628;2024-03-08T12:04:47;16.50;99.90
2999;DHT22;1509;51.964;7.628;2024-03-08T12:07:13;16.20;99.90
2999;DHT22;1509;51.964;7.628;2024-03-08T12:09:42;16.00;99.90
2999;DHT22;1509;51.964;7.628;2024-03-08T12:12:12;15.60;99.90
2999;DHT22;1509;51.964;7.628;2024-03-08T12:14:38;16.00;99.90
2999;DHT22;1509;51.964;7.628;2024-03-08T12:17:04;16.10;99.90
2999;DHT22;1509;51.964;7.628;2024-03-08T12:19:31;16.10;99.90
2999;DHT22;1509;51.964;7.628;2024-03-08T12:22:07;16.30;99.90
2999;DHT22;1509;51.964;7.628;2024-03-08T12:24:35;16.50;99.90
2999;DHT22;1509;51.964;7.628;2024-03-08T12:27:18;16.00;99.90
2999;DHT22;1509;51.964;7.628;2024-03-08T12:29:44;16.10;99.90
2999;DHT22;1509;51.964;7.628;2024-03-08T12:32:10;15.60;99.90
2999;DHT22;1509;51.964;7.628;2024-03-08T12:34:37;15.70;99.90
2999;DHT22;1509;51.964;7.628;2024-03-08T12:37:02;15.60;99.90
2999;DHT22;1509;51.964;7.628;2024-03-08T12:39:30;15.50;99.90
2999;DHT22;1509;51.964;7.628;2024-03-08T12:41:56;15.90;99.90
2999;DHT22;1509;51.964;7.628;2024-03-08T12:44:25;15.90;99.90
2999;DHT22;1509;51.964;7.628;2024-03-08T12:46:51;16.20;99.90
2999;DHT22;1509;51.964;7.628;2024-03-08T12:49:19;16.40;99.90
2999;DHT22;1509;51.964;7.628;2024-03-08T12:51:47;16.50;99.90
2999;DHT22;1509;51.964;7.628;2024-03-08T12:54:13;16.50;99.90
2999;DHT22;1509;51.964;7.628;2024-03-08T12:56:38;16.50;99.90
2999;DHT22;1509;51.964;7.628;2024-03-08T12:59:06;16.40;99.90
2999;DHT22;1509;51.964;7.628;2024-03-08T13:01:41;16.30;99.90
2999;DHT22;1509;51.964;7.628;2024-03-08T13:04:07;15.90;99.90
2999;DHT22;1509;51.964;7.628;2024-03-08T13:06:36;15.20;99.90
2999;DHT22;1509;51.964;7.628;2024-03-08T13:09:02;15.80;99.90
2999;DHT22;1509;51.964;7.628;2024-03-08T13:11:31;15.90;99.90
2999;DHT22;1509;51.964;7.628;2024-03-08T13:14:02;16.20;99.90
2999;DHT22;1509;51.964;7.628;2024-03-08T13:16:29;16.40;99.90
2999;DHT22;1509;51.964;7.628;2024-03-08T13:18:55;15.50;99.90
2999;DHT22;1509;51.964;7.628;2024-03-08T13:21:22;15.60;99.90
2999;DHT22;1509;51.964;7.628;2024-03-08T13:23:49;15.50;99.90
2999;DHT22;1509;51.964;7.628;2024-03-08T13:26:20;15.60;99.90
2999;DHT22;1509;51.964;7.628;2024-03-08T13:28:47;15.60;99.90
2999;DHT22;1509;51.964;7.628;2024-03-08T13:31:14;15.90;99.90
2999;DHT22;1509;51.964;7.628;2024-03-08T13:33:40;15.90;99.90
2999;DHT22;1509;51.964;7.628;2024-03-08T13:36:08;16.00;99.90
2999;DHT22;1509;51.964;7.628;2024-03-08T13:38:47;15.70;99.90
2999;DHT22;1509;51.964;7.628;2024-03-08T13:41:14;15.30;99.90
2999;DHT22;1509;51.964;7.628;2024-03-08T13:43:42;15.20;99.90
2999;DHT22;1509;51.964;7.628;2024-03-08T13:46:08;15.60;99.90
2999;DHT22;1509;51.964;7.628;2024-03-08T13:48:35;15.90;99.90
2999;DHT22;1509;51.964;7.628;2024-03-08T13:51:03;15.70;99.90
2999;DHT22;1509;51.964;7.628;2024-03-08T13:53:30;15.40;99.90
2999;DHT22;1509;51.964;7.628;2024-03-08T13:55:56;15.70;99.90
2999;DHT22;1509;51.964;7.628;2024-03-08T13:58:22;15.80;99.90
2999;DHT22;1509;51.964;7.628;2024-03-08T14:00:47;15.10;99.90
2999;DHT22;1509;51.964;7.628;2024-03-08T14:03:13;14.90;99.90
2999;DHT22;1509;51.964;7.628;2024-03-08T14:05:40;14.50;99.90
2999;DHT22;1509;51.964;7.628;2024-03-08T14:08:07;14.70;99.90
2999;DHT22;1509;51.964;7.628;2024-03-08T14:10:33;14.30;99.90
2999;DHT22;1509;51.964;7.628;2024-03-08T14:13:00;14.20;99.90
2999;DHT22;1509;51.964;7.628;2024-03-08T14:15:26;14.40;99.90
2999;DHT22;1509;51.964;7.628;2024-03-08T14:17:55;14.50;99.90
2999;DHT22;1509;51.964;7.628;2024-03-08T14:20:21;14.60;99.90
2999;DHT22;1509;51.964;7.628;2024-03-08T14:22:54;14.40;99.90
2999;DHT22;1509;51.964;7.628;2024-03-08T14:25:20;14.10;99.90
2999;DHT22;1509;51.964;7.628;2024-03-08T14:27:49;14.00;99.90
2999;DHT22;1509;51.964;7.628;2024-03-08T14:30:15;13.80;99.90
2999;DHT22;1509;51.964;7.628;2024-03-08T14:33:04;13.70;99.90
2999;DHT22;1509;51.964;7.628;2024-03-08T14:35:31;13.30;99.90
2999;DHT22;1509;51.964;7.628;2024-03-08T14:37:57;13.20;99.90
2999;DHT22;1509;51.964;7.628;2024-03-08T14:40:25;13.00;99.90
2999;DHT22;1509;51.964;7.628;2024-03-08T14:42:51;12.80;99.90
2999;DHT22;1509;51.964;7.628;2024-03-08T14:45:17;12.70;99.90
2999;DHT22;1509;51.964;7.628;2024-03-08T14:47:49;12.40;99.90
2999;DHT22;1509;51.964;7.628;2024-03-08T14:50:16;12.00;99.90
2999;DHT22;1509;51.964;7.628;2024-03-08T14:52:43;11.90;99.90
2999;DHT22;1509;51.964;7.628;2024-03-08T14:55:08;12.00;99.90
2999;DHT22;1509;51.964;7.628;2024-03-08T14:57:36;11.70;99.90
2999;DHT22;1509;51.964;7.628;2024-03-08T15:00:02;11.60;99.90
2999;DHT22;1509;51.964;7.628;2024-03-08T15:02:31;11.50;99.90
2999;DHT22;1509;51.964;7.628;2024-03-08T15:05:03;11.50;99.90
2999;DHT22;1509;51.964;7.628;2024-03-08T15:07:34;11.40;99.90
2999;DHT22;1509;51.964;7.628;2024-03-08T15:10:00;11.40;99.90
2999;DHT22;1509;51.964;7.628;2024-03-08T15:12:25;11.30;99.90
2999;DHT22;1509;51.964;7.628;2024-03-08T15:14:54;11.30;99.90
2999;DHT22;1509;51.964;7.628;2024-03-08T15:17:21;11.30;99.90
2999;DHT22;1509;51.964;7.628;2024-03-08T15:19:50;11.30;99.90
2999;DHT22;1509;51.964;7.628;2024-03-08T15:22:16;11.50;99.90
2999;DHT22;1509;51.964;7.628;2024-03-08T15:24:44;11.40;99.90
2999;DHT22;1509;51.964;7.628;2024-03-08T15:27:09;11.30;99.90
2999;DHT22;1509;51.964;7.628;2024-03-08T15:29:35;11.00;99.90
2999;DHT22;1509;51.964;7.628;2024-03-08T15:32:02;11.10;99.90
2999;DHT22;1509;51.964;7.628;2024-03-08T15:34:28;11.10;99.90
2999;DHT22;1509;51.964;7.628;2024-03-08T15:36:54;10.90;99.90
2999;DHT22;1509;51.964;7.628;2024-03-08T15:39:19;11.10;99.90
2999;DHT22;1509;51.964;7.628;2024-03-08T15:41:49;11.10;99.90
2999;DHT22;1509;51.964;7.628;2024-03-08T15:44:15;11.10;99.90
2999;DHT22;1509;51.964;7.628;2024-03-08T15:46:41;11.00;99.90
2999;DHT22;1509;51.964;7.628;2024-03-08T15:49:07;10.90;99.90
2999;DHT22;1509;51.964;7.628;2024-03-08T15:51:34;10.90;99.90
2999;DHT22;1509;51.964;7.628;2024-03-08T15:54:02;10.70;99.90
2999;DHT22;1509;51.964;7.628;2024-03-08T15:56:30;10.70;99.90
2999;DHT22;1509;51.964;7.628;2024-03-08T15:58:57;10.70;99.90
2999;DHT22;1509;51.964;7.628;2024-03-08T16:01:23;10.60;99.90
2999;DHT22;1509;51.964;7.628;2024-03-08T16:03:50;10.80;99.90
2999;DHT22;1509;51.964;7.628;2024-03-08T16:06:18;10.70;99.90
2999;DHT22;1509;51.964;7.628;2024-03-08T16:08:48;10.80;99.90
2999;DHT22;1509;51.964;7.628;2024-03-08T16:11:15;10.80;99.90
2999;DHT22;1509;51.964;7.628;2024-03-08T16:13:42;10.70;99.90
2999;DHT22;1509;51.964;7.628;2024-03-08T16:16:08;10.80;99.90
2999;DHT22;1509;51.964;7.628;2024-03-08T16:18:34;10.70;99.90
2999;DHT22;1509;51.964;7.628;2024-03-08T16:21:00;10.70;99.90
2999;DHT22;1509;51.964;7.628;2024-03-08T16:23:28;10.50;99.90